Terminal Aerodrome Forecast
Issued by NWS

Home | Current Version | Previous Version | Graphics & Text | Print | Product List | Glossary On
Versions: 1 2 3 4 5 6 7 8 9 10 11 12 13 14 15 16 17 18 19 20 21
000
FTUS43 KGRB 170520
TAFRHI
TAF
KRHI 170520Z 1706/1806 15009KT P6SM OVC016
      TEMPO 1706/1710 -SN SCT015 BKN020
     FM171000 16009G15KT P6SM -SN OVC014
     FM171300 17011G21KT P6SM -FZDZSN OVC010
     FM171800 17012G22KT 5SM -RA BR OVC010
     FM180000 VRB03KT 2SM -RASN BR OVC008
     FM180300 31003KT 4SM -SN BR OVC007=

USA.gov is the U.S. government's official web portal to all federal, state and local government web resources and services.